createdAt,value
2023-02-08T00:00:19.593Z,1.44
2023-02-08T00:02:47.176Z,1.31
2023-02-08T00:05:14.715Z,1.19
2023-02-08T00:07:43.480Z,1.06
2023-02-08T00:10:11.746Z,1.26
2023-02-08T00:12:39.177Z,1.07
2023-02-08T00:15:07.227Z,1.12
2023-02-08T00:17:34.638Z,1.13
2023-02-08T00:20:02.059Z,1.08
2023-02-08T00:22:29.479Z,1.15
2023-02-08T00:24:58.228Z,1.08
2023-02-08T00:27:25.657Z,1.08
2023-02-08T00:29:53.083Z,0.94
2023-02-08T00:32:20.473Z,0.92
2023-02-08T00:34:47.900Z,0.89
2023-02-08T00:37:15.341Z,1.07
2023-02-08T00:39:42.812Z,0.94
2023-02-08T00:42:11.681Z,0.88
2023-02-08T00:44:39.396Z,1.08
2023-02-08T00:47:06.940Z,1.15
2023-02-08T00:49:34.617Z,1.14
2023-02-08T00:52:02.085Z,0.91
2023-02-08T00:54:29.521Z,1.06
2023-02-08T00:56:56.901Z,1.10
2023-02-08T00:59:25.905Z,0.97
2023-02-08T01:01:53.372Z,1.09
2023-02-08T01:04:20.794Z,1.09
2023-02-08T01:06:48.209Z,0.89
2023-02-08T01:09:15.695Z,0.81
2023-02-08T01:11:43.120Z,0.76
2023-02-08T01:14:10.909Z,0.89
2023-02-08T01:16:39.944Z,1.00
2023-02-08T01:19:07.742Z,1.16
2023-02-08T01:21:37.853Z,1.19
2023-02-08T01:24:06.111Z,1.19
2023-02-08T01:26:34.103Z,0.75
2023-02-08T01:29:03.998Z,0.56
2023-02-08T01:31:33.775Z,0.81
2023-02-08T01:34:04.210Z,0.86
2023-02-08T01:36:33.526Z,0.55
2023-02-08T01:39:01.283Z,0.54
2023-02-08T01:41:31.615Z,0.77
2023-02-08T01:44:08.169Z,0.70
2023-02-08T01:46:37.504Z,0.75
2023-02-08T01:49:11.792Z,0.78
2023-02-08T01:51:43.186Z,0.82
2023-02-08T01:54:13.821Z,0.83
2023-02-08T01:56:45.738Z,0.61
2023-02-08T01:59:18.803Z,0.78
2023-02-08T02:01:48.545Z,0.87
2023-02-08T02:04:17.454Z,1.10
2023-02-08T02:06:48.976Z,1.13
2023-02-08T02:09:21.802Z,0.84
2023-02-08T02:11:50.919Z,1.02
2023-02-08T02:14:18.631Z,1.01
2023-02-08T02:16:46.194Z,1.18
2023-02-08T02:19:32.600Z,1.26
2023-02-08T02:22:16.093Z,1.29
2023-02-08T02:25:06.821Z,1.21
2023-02-08T02:27:49.184Z,1.32
2023-02-08T02:30:42.682Z,1.27
2023-02-08T02:33:36.138Z,1.33
2023-02-08T02:36:14.583Z,1.51
2023-02-08T02:38:53.801Z,1.58
2023-02-08T02:41:51.602Z,1.46
2023-02-08T02:44:24.725Z,1.50
2023-02-08T02:47:01.655Z,1.68
2023-02-08T02:49:38.385Z,1.57
2023-02-08T02:52:10.428Z,1.57
2023-02-08T02:54:42.549Z,1.51
2023-02-08T02:57:14.386Z,1.37
2023-02-08T02:59:43.049Z,1.40
2023-02-08T03:02:11.121Z,1.38
2023-02-08T03:04:58.045Z,1.33
2023-02-08T03:07:43.616Z,1.47
2023-02-08T03:10:25.791Z,1.21
2023-02-08T03:12:59.896Z,1.39
2023-02-08T03:15:36.288Z,1.34
2023-02-08T03:18:13.765Z,1.40
2023-02-08T03:20:49.279Z,1.36
2023-02-08T03:23:24.742Z,1.12
2023-02-08T03:26:01.134Z,1.41
2023-02-08T03:28:37.850Z,1.17
2023-02-08T03:31:13.890Z,1.25
2023-02-08T03:33:46.421Z,1.46
2023-02-08T03:36:23.020Z,1.22
2023-02-08T03:38:52.079Z,1.05
2023-02-08T03:41:23.758Z,1.28
2023-02-08T03:43:57.540Z,1.39
2023-02-08T03:46:29.178Z,1.23
2023-02-08T03:49:01.369Z,1.27
2023-02-08T03:51:31.990Z,1.34
2023-02-08T03:54:04.614Z,0.86
2023-02-08T03:56:39.747Z,0.88
2023-02-08T03:59:10.381Z,1.14
2023-02-08T04:01:45.473Z,1.15
2023-02-08T04:04:15.230Z,1.14
2023-02-08T04:06:44.065Z,1.26
2023-02-08T04:09:11.570Z,1.14
2023-02-08T04:11:39.016Z,1.05
2023-02-08T04:14:06.429Z,1.04
2023-02-08T04:16:33.894Z,1.27
2023-02-08T04:19:01.323Z,1.26
2023-02-08T04:21:28.789Z,1.20
2023-02-08T04:23:57.599Z,1.09
2023-02-08T04:26:25.023Z,0.72
2023-02-08T04:28:52.432Z,1.01
2023-02-08T04:31:19.926Z,1.13
2023-02-08T04:33:47.404Z,0.85
2023-02-08T04:36:14.837Z,1.07
2023-02-08T04:38:42.277Z,0.73
2023-02-08T04:41:11.093Z,1.03
2023-02-08T04:43:38.587Z,0.88
2023-02-08T04:46:06.389Z,1.04
2023-02-08T04:48:33.850Z,1.21
2023-02-08T04:51:01.564Z,1.28
2023-02-08T04:53:29.018Z,0.95
2023-02-08T04:55:56.460Z,1.22
2023-02-08T04:58:25.264Z,1.18
2023-02-08T05:00:52.709Z,1.14
2023-02-08T05:03:20.513Z,1.23
2023-02-08T05:05:47.925Z,1.41
2023-02-08T05:08:15.333Z,1.08
2023-02-08T05:10:45.844Z,1.06
2023-02-08T05:13:13.280Z,1.19
2023-02-08T05:15:42.127Z,1.17
2023-02-08T05:18:09.600Z,1.09
2023-02-08T05:20:37.071Z,1.12
2023-02-08T05:23:06.024Z,0.88
2023-02-08T05:25:33.445Z,0.78
2023-02-08T05:28:01.169Z,0.49
2023-02-08T05:30:28.659Z,1.08
2023-02-08T05:32:57.448Z,0.72
2023-02-08T05:35:24.851Z,1.03
2023-02-08T05:37:52.282Z,0.43
2023-02-08T05:40:19.806Z,0.82
2023-02-08T05:42:47.639Z,0.83
2023-02-08T05:45:15.404Z,-0.20
2023-02-08T05:47:42.975Z,0.35
2023-02-08T05:50:11.787Z,0.51
2023-02-08T05:52:39.292Z,0.57
2023-02-08T05:55:07.459Z,0.33
2023-02-08T05:57:35.827Z,-0.04
2023-02-08T06:00:04.246Z,0.37
2023-02-08T06:02:32.476Z,0.84
2023-02-08T06:04:59.935Z,0.95
2023-02-08T06:07:29.761Z,1.01
2023-02-08T06:09:57.210Z,0.82
2023-02-08T06:12:24.661Z,0.78
2023-02-08T06:14:52.108Z,0.97
2023-02-08T06:17:19.702Z,0.47
2023-02-08T06:19:47.136Z,0.91
2023-02-08T06:22:14.589Z,1.16
2023-02-08T06:24:43.427Z,1.19
2023-02-08T06:27:10.879Z,1.27
2023-02-08T06:29:38.294Z,1.27
2023-02-08T06:32:06.168Z,0.82
2023-02-08T06:34:33.728Z,1.21
2023-02-08T06:37:02.221Z,0.96
2023-02-08T06:39:30.554Z,1.23
2023-02-08T06:41:59.354Z,1.04
2023-02-08T06:44:26.766Z,1.26
2023-02-08T06:46:54.382Z,1.13
2023-02-08T06:49:22.248Z,1.19
2023-02-08T06:51:50.220Z,1.12
2023-02-08T06:54:19.759Z,0.85
2023-02-08T06:56:47.156Z,0.60
2023-02-08T06:59:16.047Z,1.02
2023-02-08T07:01:43.469Z,0.87
2023-02-08T07:04:10.897Z,0.78
2023-02-08T07:06:38.316Z,1.22
2023-02-08T07:09:05.776Z,0.36
2023-02-08T07:11:33.225Z,0.85
2023-02-08T07:14:00.666Z,1.14
2023-02-08T07:16:29.415Z,1.33
2023-02-08T07:18:56.927Z,1.19
2023-02-08T07:21:24.361Z,1.27
2023-02-08T07:23:51.759Z,0.59
2023-02-08T07:26:19.162Z,1.33
2023-02-08T07:28:46.585Z,1.53
2023-02-08T07:31:16.129Z,1.24
2023-02-08T07:33:45.392Z,1.46
2023-02-08T07:36:12.975Z,1.50
2023-02-08T07:38:40.606Z,1.60
2023-02-08T07:41:09.863Z,1.65
2023-02-08T07:43:37.656Z,1.33
2023-02-08T07:46:08.912Z,1.72
2023-02-08T07:48:38.511Z,1.65
2023-02-08T07:51:09.262Z,1.58
2023-02-08T07:53:37.288Z,1.75
2023-02-08T07:56:05.182Z,1.81
2023-02-08T07:58:32.728Z,1.74
2023-02-08T08:01:06.885Z,1.64
2023-02-08T08:03:39.968Z,1.75
2023-02-08T08:06:09.049Z,1.54
2023-02-08T08:08:36.483Z,1.88
2023-02-08T08:11:04.024Z,2.05
2023-02-08T08:13:31.437Z,1.71
2023-02-08T08:15:59.055Z,1.85
2023-02-08T08:18:26.530Z,2.21
2023-02-08T08:20:54.003Z,2.03
2023-02-08T08:23:23.778Z,2.01
2023-02-08T08:25:51.309Z,2.03
2023-02-08T08:28:18.962Z,2.06
2023-02-08T08:30:46.931Z,2.25
2023-02-08T08:33:14.815Z,2.21
2023-02-08T08:35:42.581Z,2.29
2023-02-08T08:38:10.321Z,1.97
2023-02-08T08:40:39.298Z,2.07
2023-02-08T08:43:06.935Z,2.09
2023-02-08T08:45:36.156Z,2.40
2023-02-08T08:48:04.212Z,2.13
2023-02-08T08:50:31.954Z,2.21
2023-02-08T08:52:59.405Z,2.27
2023-02-08T08:55:28.307Z,1.55
2023-02-08T08:57:57.144Z,1.01
2023-02-08T09:00:24.835Z,2.08
2023-02-08T09:02:52.426Z,1.30
2023-02-08T09:05:20.235Z,2.03
2023-02-08T09:07:47.737Z,1.59
2023-02-08T09:10:15.169Z,1.40
2023-02-08T09:12:42.743Z,2.29
2023-02-08T09:15:11.718Z,2.43
2023-02-08T09:17:39.647Z,2.04
2023-02-08T09:20:07.765Z,2.69
2023-02-08T09:22:35.214Z,2.72
2023-02-08T09:25:02.711Z,2.04
2023-02-08T09:27:30.246Z,1.50
2023-02-08T09:29:57.636Z,1.04
2023-02-08T09:32:26.376Z,1.56
2023-02-08T09:34:53.812Z,2.01
2023-02-08T09:37:21.268Z,2.26
2023-02-08T09:39:48.718Z,1.21
2023-02-08T09:42:25.191Z,1.88
2023-02-08T09:45:13.408Z,2.43
2023-02-08T09:47:49.340Z,1.36
2023-02-08T09:50:22.116Z,2.66
2023-02-08T09:53:03.785Z,2.99
2023-02-08T09:55:37.915Z,2.67
2023-02-08T09:58:18.558Z,2.85
2023-02-08T10:00:50.872Z,3.14
2023-02-08T10:03:37.197Z,3.01
2023-02-08T10:06:06.551Z,3.04
2023-02-08T10:08:35.846Z,3.30
2023-02-08T10:11:28.013Z,3.18
2023-02-08T10:14:09.286Z,2.87
2023-02-08T10:16:49.507Z,2.80
2023-02-08T10:19:35.706Z,1.86
2023-02-08T10:22:13.731Z,2.80
2023-02-08T10:25:00.172Z,3.14
2023-02-08T10:27:39.716Z,2.96
2023-02-08T10:30:26.105Z,3.12
2023-02-08T10:33:01.055Z,2.98
2023-02-08T10:35:37.014Z,2.83
2023-02-08T10:38:23.501Z,2.74
2023-02-08T10:40:55.898Z,3.28
2023-02-08T10:43:31.975Z,3.12
2023-02-08T10:46:05.714Z,3.15
2023-02-08T10:48:46.245Z,2.82
2023-02-08T10:51:18.620Z,3.12
2023-02-08T10:53:46.763Z,3.49
2023-02-08T10:56:37.471Z,3.72
2023-02-08T10:59:11.265Z,3.65
2023-02-08T11:01:38.722Z,3.42
2023-02-08T11:04:08.093Z,3.80
2023-02-08T11:06:37.739Z,3.63
2023-02-08T11:09:06.512Z,3.96
2023-02-08T11:11:42.725Z,3.88
2023-02-08T11:14:17.302Z,3.52
2023-02-08T11:16:51.048Z,3.86
2023-02-08T11:19:24.423Z,4.19
2023-02-08T11:21:53.609Z,4.16
2023-02-08T11:24:28.880Z,3.73
2023-02-08T11:26:57.335Z,4.02
2023-02-08T11:29:26.389Z,3.83
2023-02-08T11:32:02.341Z,3.71
2023-02-08T11:34:32.687Z,3.94
2023-02-08T11:37:04.687Z,3.64
2023-02-08T11:39:39.204Z,2.23
2023-02-08T11:42:08.188Z,3.41
2023-02-08T11:44:38.018Z,4.06
2023-02-08T11:47:08.545Z,3.54
2023-02-08T11:49:39.840Z,4.07
2023-02-08T11:52:21.264Z,3.55
2023-02-08T11:54:48.764Z,4.04
2023-02-08T11:57:19.683Z,4.46
2023-02-08T11:59:48.065Z,4.24
2023-02-08T12:02:32.398Z,4.25
2023-02-08T12:05:00.625Z,3.63
2023-02-08T12:07:41.416Z,3.85
2023-02-08T12:10:21.879Z,3.82
2023-02-08T12:13:16.775Z,4.54
2023-02-08T12:15:59.007Z,4.25
2023-02-08T12:18:51.872Z,3.14
2023-02-08T12:21:22.784Z,3.80
2023-02-08T12:23:58.615Z,4.32
2023-02-08T12:26:44.915Z,2.82
2023-02-08T12:29:45.636Z,4.23
2023-02-08T12:32:34.532Z,4.02
2023-02-08T12:35:33.175Z,4.66
2023-02-08T12:38:34.343Z,4.67
2023-02-08T12:41:12.791Z,4.01
2023-02-08T12:43:51.005Z,4.38
2023-02-08T12:46:45.216Z,4.56
2023-02-08T12:49:45.218Z,3.92
2023-02-08T12:52:25.060Z,4.33
2023-02-08T12:54:57.906Z,4.70
2023-02-08T12:57:31.751Z,4.12
2023-02-08T13:00:04.107Z,4.67
2023-02-08T13:02:43.298Z,4.63
2023-02-08T13:05:18.612Z,4.78
2023-02-08T13:07:50.357Z,4.51
2023-02-08T13:10:26.679Z,4.40
2023-02-08T13:12:58.121Z,3.61
2023-02-08T13:15:31.945Z,3.98
2023-02-08T13:18:02.646Z,4.49
2023-02-08T13:20:39.573Z,4.43
2023-02-08T13:23:16.516Z,4.76
2023-02-08T13:25:45.472Z,4.72
2023-02-08T13:28:19.927Z,4.78
2023-02-08T13:30:55.108Z,4.50
2023-02-08T13:33:30.263Z,4.54
2023-02-08T13:35:58.883Z,4.95
2023-02-08T13:38:29.531Z,4.92
2023-02-08T13:41:15.548Z,4.91
2023-02-08T13:43:51.379Z,4.09
2023-02-08T13:46:21.027Z,4.52
2023-02-08T13:48:51.204Z,4.13
2023-02-08T13:51:51.830Z,3.52
2023-02-08T13:54:19.443Z,3.79
2023-02-08T13:56:49.091Z,4.99
2023-02-08T13:59:30.255Z,5.01
2023-02-08T14:02:29.918Z,5.18
2023-02-08T14:05:35.459Z,5.21
2023-02-08T14:08:06.553Z,5.19
2023-02-08T14:10:39.337Z,5.31
2023-02-08T14:13:17.063Z,5.14
2023-02-08T14:15:46.145Z,4.58
2023-02-08T14:18:26.469Z,3.84
2023-02-08T14:21:03.344Z,4.99
2023-02-08T14:23:32.396Z,5.02
2023-02-08T14:26:06.470Z,4.83
2023-02-08T14:28:38.418Z,4.19
2023-02-08T14:31:10.906Z,4.97
2023-02-08T14:33:40.784Z,4.74
2023-02-08T14:36:24.299Z,4.51
2023-02-08T14:39:08.304Z,5.04
2023-02-08T14:41:51.497Z,4.54
2023-02-08T14:44:55.565Z,5.38
2023-02-08T14:48:03.906Z,5.35
2023-02-08T14:50:51.115Z,5.20
2023-02-08T14:53:29.978Z,5.02
2023-02-08T14:56:03.782Z,4.86
2023-02-08T14:58:35.695Z,5.16
2023-02-08T15:01:08.011Z,5.26
2023-02-08T15:03:36.176Z,5.15
2023-02-08T15:06:49.945Z,5.24
2023-02-08T15:09:20.946Z,5.09
2023-02-08T15:12:00.648Z,5.08
2023-02-08T15:14:29.867Z,4.99
2023-02-08T15:16:58.202Z,4.63
2023-02-08T15:19:29.653Z,4.68
2023-02-08T15:22:17.872Z,4.75
2023-02-08T15:24:53.123Z,4.82
2023-02-08T15:27:23.762Z,4.60
2023-02-08T15:29:51.408Z,4.66
2023-02-08T15:32:24.295Z,4.74
2023-02-08T15:34:55.620Z,4.60
2023-02-08T15:37:24.827Z,4.49
2023-02-08T15:39:54.829Z,4.49
2023-02-08T15:42:25.854Z,4.57
2023-02-08T15:44:53.860Z,4.55
2023-02-08T15:47:27.652Z,4.33
2023-02-08T15:49:56.224Z,4.43
2023-02-08T15:52:28.742Z,4.31
2023-02-08T15:54:56.219Z,4.22
2023-02-08T15:57:34.078Z,3.45
2023-02-08T16:00:02.391Z,3.90
2023-02-08T16:02:31.931Z,4.08
2023-02-08T16:05:00.979Z,3.70
2023-02-08T16:07:34.283Z,4.08
2023-02-08T16:10:02.255Z,3.83
2023-02-08T16:12:30.191Z,3.56
2023-02-08T16:14:58.179Z,3.79
2023-02-08T16:17:43.317Z,4.12
2023-02-08T16:20:28.692Z,3.92
2023-02-08T16:23:01.810Z,4.03
2023-02-08T16:25:37.790Z,3.79
2023-02-08T16:28:06.641Z,3.46
2023-02-08T16:30:34.908Z,3.78
2023-02-08T16:33:08.565Z,3.77
2023-02-08T16:35:39.556Z,3.66
2023-02-08T16:38:11.084Z,3.90
2023-02-08T16:40:48.821Z,3.73
2023-02-08T16:43:17.860Z,3.37
2023-02-08T16:45:45.452Z,3.68
2023-02-08T16:48:33.314Z,3.85
2023-02-08T16:51:00.983Z,3.60
2023-02-08T16:53:41.388Z,3.97
2023-02-08T16:56:10.748Z,4.14
2023-02-08T16:58:38.432Z,3.96
2023-02-08T17:01:06.574Z,4.03
2023-02-08T17:03:36.601Z,3.94
2023-02-08T17:06:04.181Z,4.14
2023-02-08T17:08:35.802Z,3.99
2023-02-08T17:11:03.308Z,3.80
2023-02-08T17:13:30.816Z,3.78
2023-02-08T17:16:00.147Z,3.73
2023-02-08T17:18:27.970Z,3.68
2023-02-08T17:23:27.346Z,3.27
2023-02-08T17:25:57.675Z,3.67
2023-02-08T17:28:25.236Z,3.63
2023-02-08T17:30:53.419Z,2.97
2023-02-08T17:33:20.977Z,3.29
2023-02-08T17:35:51.152Z,3.34
2023-02-08T17:38:19.533Z,3.47
2023-02-08T17:40:47.137Z,3.23
2023-02-08T17:43:16.066Z,3.48
2023-02-08T17:45:45.107Z,3.51
2023-02-08T17:48:14.185Z,3.49
2023-02-08T17:50:43.316Z,3.33
2023-02-08T17:53:10.983Z,3.27
2023-02-08T17:55:38.426Z,3.34
2023-02-08T17:58:05.926Z,3.36
2023-02-08T18:00:35.153Z,3.01
2023-02-08T18:03:03.066Z,2.61
2023-02-08T18:05:31.374Z,3.25
2023-02-08T18:07:58.858Z,3.35
2023-02-08T18:10:28.301Z,3.53
2023-02-08T18:12:55.807Z,3.39
2023-02-08T18:15:24.196Z,3.23
2023-02-08T18:17:52.945Z,3.35
2023-02-08T18:20:20.457Z,3.16
2023-02-08T18:22:47.943Z,2.80
2023-02-08T18:25:16.172Z,3.28
2023-02-08T18:27:43.613Z,3.23
2023-02-08T18:30:12.593Z,3.09
2023-02-08T18:32:40.293Z,3.20
2023-02-08T18:35:09.635Z,3.25
2023-02-08T18:37:38.091Z,3.14
2023-02-08T18:40:08.594Z,2.50
2023-02-08T18:42:36.586Z,2.48
2023-02-08T18:45:04.648Z,3.12
2023-02-08T18:47:32.573Z,3.05
2023-02-08T18:50:00.001Z,3.18
2023-02-08T18:52:31.389Z,2.88
2023-02-08T18:54:59.744Z,3.19
2023-02-08T18:57:27.313Z,3.17
2023-02-08T18:59:55.894Z,3.26
2023-02-08T19:02:26.288Z,3.24
2023-02-08T19:04:53.806Z,3.18
2023-02-08T19:07:21.263Z,2.74
2023-02-08T19:09:50.035Z,2.46
2023-02-08T19:12:18.973Z,2.94
2023-02-08T19:14:50.518Z,2.50
2023-02-08T19:17:18.434Z,2.67
2023-02-08T19:19:46.081Z,2.96
2023-02-08T19:22:13.674Z,3.03
2023-02-08T19:24:41.118Z,3.08
2023-02-08T19:27:09.836Z,3.03
2023-02-08T19:29:37.314Z,2.89
2023-02-08T19:32:04.897Z,2.78
2023-02-08T19:34:32.376Z,2.82
2023-02-08T19:36:59.831Z,2.99
2023-02-08T19:39:28.679Z,2.52
2023-02-08T19:41:58.562Z,2.96
2023-02-08T19:44:30.277Z,2.46
2023-02-08T19:46:58.315Z,2.65
2023-02-08T19:49:27.257Z,2.62
2023-02-08T19:51:54.857Z,2.54
2023-02-08T19:54:23.014Z,1.42
2023-02-08T19:56:52.166Z,2.42
2023-02-08T19:59:22.049Z,2.62
2023-02-08T20:01:51.306Z,2.69
2023-02-08T20:04:18.794Z,2.59
2023-02-08T20:06:46.311Z,2.56
2023-02-08T20:09:16.601Z,2.78
2023-02-08T20:11:56.321Z,2.63
2023-02-08T20:14:25.194Z,2.94
2023-02-08T20:16:54.131Z,2.72
2023-02-08T20:19:21.747Z,2.17
2023-02-08T20:21:49.568Z,2.59
2023-02-08T20:24:17.210Z,2.74
2023-02-08T20:26:46.453Z,2.84
2023-02-08T20:29:15.009Z,2.47
2023-02-08T20:31:43.972Z,2.63
2023-02-08T20:34:15.061Z,2.57
2023-02-08T20:36:49.700Z,2.57
2023-02-08T20:39:20.728Z,2.64
2023-02-08T20:41:48.590Z,2.74
2023-02-08T20:44:19.172Z,2.68
2023-02-08T20:46:47.478Z,2.86
2023-02-08T20:49:21.935Z,2.64
2023-02-08T20:51:51.858Z,2.47
2023-02-08T20:54:19.703Z,2.46
2023-02-08T20:56:47.178Z,2.47
2023-02-08T20:59:15.816Z,2.11
2023-02-08T21:01:46.401Z,2.07
2023-02-08T21:04:14.447Z,2.45
2023-02-08T21:06:45.971Z,2.48
2023-02-08T21:09:16.014Z,2.54
2023-02-08T21:11:44.567Z,2.30
2023-02-08T21:14:15.333Z,2.57
2023-02-08T21:16:43.157Z,2.49
2023-02-08T21:19:10.990Z,2.55
2023-02-08T21:21:38.711Z,2.58
2023-02-08T21:24:07.800Z,2.29
2023-02-08T21:26:35.450Z,2.51
2023-02-08T21:29:06.054Z,2.17
2023-02-08T21:31:36.426Z,2.43
2023-02-08T21:34:04.516Z,2.45
2023-02-08T21:36:32.469Z,2.54
2023-02-08T21:39:00.324Z,2.53
2023-02-08T21:41:31.711Z,2.09
2023-02-08T21:44:00.926Z,2.18
2023-02-08T21:46:28.803Z,2.21
2023-02-08T21:49:14.899Z,2.30
2023-02-08T21:52:00.481Z,2.11
2023-02-08T21:54:53.487Z,2.26
2023-02-08T21:57:23.949Z,2.31
2023-02-08T21:59:53.835Z,2.40
2023-02-08T22:02:25.556Z,2.33
2023-02-08T22:04:54.260Z,2.28
2023-02-08T22:07:22.148Z,2.14
2023-02-08T22:09:49.823Z,2.20
2023-02-08T22:12:20.596Z,2.32
2023-02-08T22:14:50.231Z,2.17
2023-02-08T22:17:17.898Z,1.45
2023-02-08T22:19:45.764Z,1.59
2023-02-08T22:22:13.336Z,1.56
2023-02-08T22:24:40.799Z,2.25
2023-02-08T22:27:08.327Z,1.86
2023-02-08T22:29:35.971Z,2.16
2023-02-08T22:32:05.610Z,2.10
2023-02-08T22:34:33.193Z,2.21
2023-02-08T22:37:03.693Z,2.29
2023-02-08T22:39:32.830Z,4.17
2023-02-08T22:42:00.534Z,3.49
2023-02-08T22:44:27.965Z,3.80
2023-02-08T22:46:57.364Z,6.29
2023-02-08T22:49:26.272Z,4.67
2023-02-08T22:51:53.773Z,3.74
2023-02-08T22:54:21.326Z,5.12
2023-02-08T22:56:49.098Z,4.48
2023-02-08T22:59:16.808Z,3.10
2023-02-08T23:01:44.645Z,5.37
2023-02-08T23:04:12.279Z,4.76
2023-02-08T23:06:41.193Z,3.98
2023-02-08T23:09:08.724Z,4.62
2023-02-08T23:11:36.166Z,5.31
2023-02-08T23:14:03.592Z,3.76
2023-02-08T23:16:31.165Z,3.18
2023-02-08T23:18:58.625Z,3.36
2023-02-08T23:21:26.164Z,3.67
2023-02-08T23:23:54.943Z,5.06
2023-02-08T23:26:23.363Z,6.00
2023-02-08T23:28:52.713Z,5.11
2023-02-08T23:31:21.822Z,3.72
2023-02-08T23:33:49.609Z,2.92
2023-02-08T23:36:19.854Z,2.63
2023-02-08T23:38:47.795Z,2.55
2023-02-08T23:41:18.289Z,2.58
2023-02-08T23:43:45.858Z,2.24
2023-02-08T23:46:17.408Z,2.07
2023-02-08T23:48:47.520Z,2.02
2023-02-08T23:51:16.140Z,2.18
2023-02-08T23:53:43.739Z,2.13
2023-02-08T23:56:15.342Z,2.18
2023-02-08T23:58:44.808Z,1.99
